This is the latest recevied weather packets stored in our database for station/object XE2OR-10. If no packets are shown the sender has not sent any weather packets the latest 10 day(s).
| Time | Temp. | Humidity | Pressure | Rain* | Wind** | Luminosity | Snow |
|---|---|---|---|---|---|---|---|
| 1778183329 | 20.56° C | 83% | 1020.6 hPa | 0 mm | - | 74 W/m² | - |
| 1778183032 | 20.56° C | 83% | 1020.3 hPa | 0 mm | - | 106 W/m² | - |
| 1778182729 | 20.56° C | 84% | 1020.4 hPa | 0 mm | - | 104 W/m² | - |
| 1778182429 | 20.56° C | 84% | 1020.3 hPa | 0 mm | - | 95 W/m² | - |
| 1778182129 | 20.56° C | 84% | 1020.1 hPa | 0 mm | - | 118 W/m² | - |
| 1778181832 | 20.56° C | 84% | 1019.9 hPa | 0 mm | - | 112 W/m² | - |
| 1778181529 | 20.56° C | 84% | 1019.8 hPa | 0 mm | - | 76 W/m² | - |
| 1778181232 | 20.56° C | 85% | 1020.3 hPa | 0 mm | - | 90 W/m² | - |
| 1778180928 | 20.56° C | 85% | 1020.4 hPa | 0 mm | - | 61 W/m² | - |
| 1778180629 | 20.56° C | 85% | 1020.5 hPa | 0 mm | - | 61 W/m² | - |
| 1778180328 | 20.56° C | 85% | 1020.5 hPa | 10.67 mm | - | 49 W/m² | - |
| 1778180032 | 20.56° C | 85% | 1020.4 hPa | 10.67 mm | - | 44 W/m² | - |
| 1778179729 | 20.56° C | 85% | 1020.3 hPa | 0 mm | - | 39 W/m² | - |
| 1778179433 | 20.56° C | 85% | 1020.1 hPa | 0 mm | - | 49 W/m² | - |
| 1778179130 | 20.56° C | 85% | 1020.2 hPa | 0 mm | - | 55 W/m² | - |
| 1778178834 | 20.56° C | - | - | 0 mm | - | - | - |
| 1778178829 | 20.56° C | 85% | 1020.2 hPa | 0 mm | - | 64 W/m² | - |
| 1778178529 | 20.56° C | 85% | 1019.9 hPa | 0 mm | - | 98 W/m² | - |
| 1778178233 | 20.56° C | 85% | 1020.1 hPa | 0 mm | - | 88 W/m² | - |
| 1778177929 | 20.56° C | 85% | 1019.8 hPa | 0 mm | - | 105 W/m² | - |
| 1778177633 | 21.11° C | 85% | 1020 hPa | 0 mm | - | 98 W/m² | - |
| 1778177329 | 21.11° C | 85% | 1019.7 hPa | 0 mm | - | 191 W/m² | - |
| 1778177029 | 20.56° C | 86% | 1019.5 hPa | 0 mm | - | 274 W/m² | - |
| 1778176729 | 20° C | 88% | 1019.8 hPa | 0 mm | - | 206 W/m² | - |
| 1778176433 | 20° C | 88% | 1020.1 hPa | 0 mm | - | 127 W/m² | - |
* Rain latest hour (hover to see other rain measurements)
** Current wind speed in m/s (hover to see current wind gust speed)